sensor_id;sensor_type;location;lat;lon;timestamp;temperature;humidity
9984;DHT22;16737;50.932;6.780;2023-08-06T00:00:02;18.40;99.60
9984;DHT22;16737;50.932;6.780;2023-08-06T00:02:30;18.40;99.60
9984;DHT22;16737;50.932;6.780;2023-08-06T00:04:57;18.40;99.60
9984;DHT22;16737;50.932;6.780;2023-08-06T00:07:26;18.40;99.60
9984;DHT22;16737;50.932;6.780;2023-08-06T00:09:59;18.30;99.60
9984;DHT22;16737;50.932;6.780;2023-08-06T00:12:26;18.30;99.50
9984;DHT22;16737;50.932;6.780;2023-08-06T00:14:53;18.30;99.50
9984;DHT22;16737;50.932;6.780;2023-08-06T00:17:20;18.30;99.80
9984;DHT22;16737;50.932;6.780;2023-08-06T00:19:47;18.30;99.50
9984;DHT22;16737;50.932;6.780;2023-08-06T00:22:14;18.30;99.50
9984;DHT22;16737;50.932;6.780;2023-08-06T00:24:43;18.30;99.50
9984;DHT22;16737;50.932;6.780;2023-08-06T00:27:09;18.20;99.50
9984;DHT22;16737;50.932;6.780;2023-08-06T00:29:36;18.20;99.40
9984;DHT22;16737;50.932;6.780;2023-08-06T00:32:03;18.20;99.40
9984;DHT22;16737;50.932;6.780;2023-08-06T00:34:31;18.20;99.50
9984;DHT22;16737;50.932;6.780;2023-08-06T00:36:57;18.10;99.40
9984;DHT22;16737;50.932;6.780;2023-08-06T00:39:24;18.10;99.40
9984;DHT22;16737;50.932;6.780;2023-08-06T00:41:52;18.00;99.40
9984;DHT22;16737;50.932;6.780;2023-08-06T00:44:20;18.00;99.50
9984;DHT22;16737;50.932;6.780;2023-08-06T00:46:47;18.00;99.50
9984;DHT22;16737;50.932;6.780;2023-08-06T00:49:14;18.00;99.60
9984;DHT22;16737;50.932;6.780;2023-08-06T00:51:41;18.00;99.60
9984;DHT22;16737;50.932;6.780;2023-08-06T00:54:12;18.00;99.70
9984;DHT22;16737;50.932;6.780;2023-08-06T00:56:40;17.90;99.80
9984;DHT22;16737;50.932;6.780;2023-08-06T00:59:10;18.00;99.80
9984;DHT22;16737;50.932;6.780;2023-08-06T01:01:38;17.90;99.80
9984;DHT22;16737;50.932;6.780;2023-08-06T01:04:12;17.90;99.80
9984;DHT22;16737;50.932;6.780;2023-08-06T01:06:44;17.90;99.90
9984;DHT22;16737;50.932;6.780;2023-08-06T01:09:25;17.90;99.90
9984;DHT22;16737;50.932;6.780;2023-08-06T01:12:06;17.90;99.90
9984;DHT22;16737;50.932;6.780;2023-08-06T01:14:47;18.00;99.90
9984;DHT22;16737;50.932;6.780;2023-08-06T01:17:19;18.00;99.90
9984;DHT22;16737;50.932;6.780;2023-08-06T01:19:46;18.00;99.90
9984;DHT22;16737;50.932;6.780;2023-08-06T01:22:15;18.00;99.90
9984;DHT22;16737;50.932;6.780;2023-08-06T01:24:46;18.00;99.90
9984;DHT22;16737;50.932;6.780;2023-08-06T01:27:21;18.00;99.90
9984;DHT22;16737;50.932;6.780;2023-08-06T01:29:57;18.00;99.90
9984;DHT22;16737;50.932;6.780;2023-08-06T01:32:32;18.00;99.90
9984;DHT22;16737;50.932;6.780;2023-08-06T01:35:02;18.10;99.90
9984;DHT22;16737;50.932;6.780;2023-08-06T01:37:32;18.10;99.90
9984;DHT22;16737;50.932;6.780;2023-08-06T01:40:00;18.10;99.90
9984;DHT22;16737;50.932;6.780;2023-08-06T01:42:27;18.10;99.90
9984;DHT22;16737;50.932;6.780;2023-08-06T01:44:54;18.10;99.90
9984;DHT22;16737;50.932;6.780;2023-08-06T01:47:21;18.10;99.90
9984;DHT22;16737;50.932;6.780;2023-08-06T01:49:48;18.10;99.90
9984;DHT22;16737;50.932;6.780;2023-08-06T01:52:18;18.20;99.90
9984;DHT22;16737;50.932;6.780;2023-08-06T01:54:46;18.20;99.90
9984;DHT22;16737;50.932;6.780;2023-08-06T01:57:13;18.20;99.90
9984;DHT22;16737;50.932;6.780;2023-08-06T01:59:40;18.20;99.90
9984;DHT22;16737;50.932;6.780;2023-08-06T02:02:07;18.20;99.90
9984;DHT22;16737;50.932;6.780;2023-08-06T02:04:34;18.20;99.90
9984;DHT22;16737;50.932;6.780;2023-08-06T02:07:01;18.20;99.90
9984;DHT22;16737;50.932;6.780;2023-08-06T02:09:29;18.20;99.90
9984;DHT22;16737;50.932;6.780;2023-08-06T02:12:02;18.20;99.90
9984;DHT22;16737;50.932;6.780;2023-08-06T02:14:30;18.20;99.90
9984;DHT22;16737;50.932;6.780;2023-08-06T02:16:58;18.20;99.90
9984;DHT22;16737;50.932;6.780;2023-08-06T02:19:25;18.20;99.90
9984;DHT22;16737;50.932;6.780;2023-08-06T02:21:52;18.20;99.90
9984;DHT22;16737;50.932;6.780;2023-08-06T02:24:21;18.20;99.90
9984;DHT22;16737;50.932;6.780;2023-08-06T02:26:48;18.20;99.90
9984;DHT22;16737;50.932;6.780;2023-08-06T02:29:18;18.20;99.90
9984;DHT22;16737;50.932;6.780;2023-08-06T02:31:44;18.20;99.90
9984;DHT22;16737;50.932;6.780;2023-08-06T02:34:16;18.20;99.90
9984;DHT22;16737;50.932;6.780;2023-08-06T02:36:43;18.10;99.90
9984;DHT22;16737;50.932;6.780;2023-08-06T02:39:10;18.20;99.90
9984;DHT22;16737;50.932;6.780;2023-08-06T02:41:37;18.20;99.90
9984;DHT22;16737;50.932;6.780;2023-08-06T02:44:04;18.20;99.90
9984;DHT22;16737;50.932;6.780;2023-08-06T02:46:32;18.20;99.90
9984;DHT22;16737;50.932;6.780;2023-08-06T02:48:59;18.20;99.90
9984;DHT22;16737;50.932;6.780;2023-08-06T02:51:26;18.20;99.90
9984;DHT22;16737;50.932;6.780;2023-08-06T02:53:53;18.20;99.90
9984;DHT22;16737;50.932;6.780;2023-08-06T02:56:20;18.20;99.90
9984;DHT22;16737;50.932;6.780;2023-08-06T02:58:47;18.20;99.90
9984;DHT22;16737;50.932;6.780;2023-08-06T03:01:14;18.20;99.90
9984;DHT22;16737;50.932;6.780;2023-08-06T03:03:42;18.20;99.90
9984;DHT22;16737;50.932;6.780;2023-08-06T03:06:09;18.20;99.90
9984;DHT22;16737;50.932;6.780;2023-08-06T03:08:40;18.20;99.90
9984;DHT22;16737;50.932;6.780;2023-08-06T03:11:07;18.20;99.90
9984;DHT22;16737;50.932;6.780;2023-08-06T03:13:34;18.20;99.90
9984;DHT22;16737;50.932;6.780;2023-08-06T03:16:01;18.20;99.90
9984;DHT22;16737;50.932;6.780;2023-08-06T03:18:28;18.20;99.90
9984;DHT22;16737;50.932;6.780;2023-08-06T03:20:56;18.20;99.90
9984;DHT22;16737;50.932;6.780;2023-08-06T03:23:23;18.20;99.90
9984;DHT22;16737;50.932;6.780;2023-08-06T03:25:50;18.10;99.90
9984;DHT22;16737;50.932;6.780;2023-08-06T03:28:17;18.20;99.90
9984;DHT22;16737;50.932;6.780;2023-08-06T03:30:44;18.10;99.90
9984;DHT22;16737;50.932;6.780;2023-08-06T03:33:11;18.10;99.90
9984;DHT22;16737;50.932;6.780;2023-08-06T03:35:38;18.20;99.90
9984;DHT22;16737;50.932;6.780;2023-08-06T03:38:06;18.20;99.90
9984;DHT22;16737;50.932;6.780;2023-08-06T03:40:35;18.20;99.90
9984;DHT22;16737;50.932;6.780;2023-08-06T03:43:02;18.20;99.90
9984;DHT22;16737;50.932;6.780;2023-08-06T03:45:32;18.20;99.90
9984;DHT22;16737;50.932;6.780;2023-08-06T03:47:59;18.20;99.90
9984;DHT22;16737;50.932;6.780;2023-08-06T03:50:26;18.20;99.90
9984;DHT22;16737;50.932;6.780;2023-08-06T03:52:53;18.20;99.90
9984;DHT22;16737;50.932;6.780;2023-08-06T03:55:22;18.20;99.90
9984;DHT22;16737;50.932;6.780;2023-08-06T03:57:49;18.10;99.90
9984;DHT22;16737;50.932;6.780;2023-08-06T04:00:16;18.10;99.90
9984;DHT22;16737;50.932;6.780;2023-08-06T04:02:43;18.20;99.90
9984;DHT22;16737;50.932;6.780;2023-08-06T04:05:10;18.10;99.90
9984;DHT22;16737;50.932;6.780;2023-08-06T04:07:37;18.10;99.90
9984;DHT22;16737;50.932;6.780;2023-08-06T04:10:04;18.10;99.90
9984;DHT22;16737;50.932;6.780;2023-08-06T04:12:33;18.10;99.90
9984;DHT22;16737;50.932;6.780;2023-08-06T04:15:04;18.10;99.90
9984;DHT22;16737;50.932;6.780;2023-08-06T04:17:31;18.10;99.90
9984;DHT22;16737;50.932;6.780;2023-08-06T04:19:59;18.00;99.90
9984;DHT22;16737;50.932;6.780;2023-08-06T04:22:26;18.10;99.90
9984;DHT22;16737;50.932;6.780;2023-08-06T04:24:53;18.00;99.90
9984;DHT22;16737;50.932;6.780;2023-08-06T04:27:20;18.10;99.90
9984;DHT22;16737;50.932;6.780;2023-08-06T04:29:48;18.00;99.90
9984;DHT22;16737;50.932;6.780;2023-08-06T04:32:15;18.10;99.90
9984;DHT22;16737;50.932;6.780;2023-08-06T04:34:42;18.10;99.90
9984;DHT22;16737;50.932;6.780;2023-08-06T04:37:09;18.10;99.90
9984;DHT22;16737;50.932;6.780;2023-08-06T04:39:37;18.10;99.90
9984;DHT22;16737;50.932;6.780;2023-08-06T04:42:04;18.10;99.90
9984;DHT22;16737;50.932;6.780;2023-08-06T04:44:36;18.20;99.90
9984;DHT22;16737;50.932;6.780;2023-08-06T04:47:05;18.20;99.90
9984;DHT22;16737;50.932;6.780;2023-08-06T04:49:32;18.20;99.90
9984;DHT22;16737;50.932;6.780;2023-08-06T04:51:59;18.30;99.90
9984;DHT22;16737;50.932;6.780;2023-08-06T04:54:26;18.30;99.90
9984;DHT22;16737;50.932;6.780;2023-08-06T04:56:53;18.30;99.90
9984;DHT22;16737;50.932;6.780;2023-08-06T04:59:19;18.40;99.90
9984;DHT22;16737;50.932;6.780;2023-08-06T05:01:46;18.30;99.90
9984;DHT22;16737;50.932;6.780;2023-08-06T05:04:15;18.40;99.90
9984;DHT22;16737;50.932;6.780;2023-08-06T05:06:42;18.40;99.90
9984;DHT22;16737;50.932;6.780;2023-08-06T05:09:08;18.40;99.90
9984;DHT22;16737;50.932;6.780;2023-08-06T05:11:35;18.50;99.90
9984;DHT22;16737;50.932;6.780;2023-08-06T05:14:02;18.50;99.90
9984;DHT22;16737;50.932;6.780;2023-08-06T05:16:29;18.40;99.90
9984;DHT22;16737;50.932;6.780;2023-08-06T05:18:56;18.50;99.90
9984;DHT22;16737;50.932;6.780;2023-08-06T05:21:24;18.50;99.90
9984;DHT22;16737;50.932;6.780;2023-08-06T05:23:51;18.50;99.90
9984;DHT22;16737;50.932;6.780;2023-08-06T05:26:18;18.50;99.90
9984;DHT22;16737;50.932;6.780;2023-08-06T05:31:19;18.50;99.90
9984;DHT22;16737;50.932;6.780;2023-08-06T05:33:46;18.50;99.90
9984;DHT22;16737;50.932;6.780;2023-08-06T05:36:13;18.50;99.90
9984;DHT22;16737;50.932;6.780;2023-08-06T05:38:41;18.60;99.90
9984;DHT22;16737;50.932;6.780;2023-08-06T05:41:09;18.60;99.90
9984;DHT22;16737;50.932;6.780;2023-08-06T05:43:36;18.60;99.90
9984;DHT22;16737;50.932;6.780;2023-08-06T05:46:03;18.60;99.90
9984;DHT22;16737;50.932;6.780;2023-08-06T05:48:29;18.60;99.90
9984;DHT22;16737;50.932;6.780;2023-08-06T05:50:57;18.60;99.90
9984;DHT22;16737;50.932;6.780;2023-08-06T05:53:24;18.60;99.90
9984;DHT22;16737;50.932;6.780;2023-08-06T05:55:52;18.60;99.90
9984;DHT22;16737;50.932;6.780;2023-08-06T05:58:19;18.60;99.90
9984;DHT22;16737;50.932;6.780;2023-08-06T06:00:46;18.70;99.90
9984;DHT22;16737;50.932;6.780;2023-08-06T06:03:13;18.70;99.90
9984;DHT22;16737;50.932;6.780;2023-08-06T06:05:40;18.70;99.90
9984;DHT22;16737;50.932;6.780;2023-08-06T06:08:07;18.70;99.90
9984;DHT22;16737;50.932;6.780;2023-08-06T06:10:35;18.70;99.90
9984;DHT22;16737;50.932;6.780;2023-08-06T06:13:03;18.70;99.90
9984;DHT22;16737;50.932;6.780;2023-08-06T06:15:30;18.70;99.90
9984;DHT22;16737;50.932;6.780;2023-08-06T06:17:57;18.80;99.90
9984;DHT22;16737;50.932;6.780;2023-08-06T06:20:24;18.80;99.90
9984;DHT22;16737;50.932;6.780;2023-08-06T06:22:51;18.80;99.90
9984;DHT22;16737;50.932;6.780;2023-08-06T06:25:18;18.80;99.90
9984;DHT22;16737;50.932;6.780;2023-08-06T06:27:45;18.80;99.90
9984;DHT22;16737;50.932;6.780;2023-08-06T06:30:13;18.80;99.90
9984;DHT22;16737;50.932;6.780;2023-08-06T06:32:40;18.90;99.90
9984;DHT22;16737;50.932;6.780;2023-08-06T06:35:08;18.80;99.90
9984;DHT22;16737;50.932;6.780;2023-08-06T06:37:35;18.80;99.90
9984;DHT22;16737;50.932;6.780;2023-08-06T06:40:02;18.90;99.90
9984;DHT22;16737;50.932;6.780;2023-08-06T06:42:29;18.90;99.90
9984;DHT22;16737;50.932;6.780;2023-08-06T06:44:56;18.90;99.90
9984;DHT22;16737;50.932;6.780;2023-08-06T06:47:25;18.90;99.90
9984;DHT22;16737;50.932;6.780;2023-08-06T06:49:52;18.90;99.90
9984;DHT22;16737;50.932;6.780;2023-08-06T06:52:19;18.80;99.90
9984;DHT22;16737;50.932;6.780;2023-08-06T06:54:46;18.80;99.90
9984;DHT22;16737;50.932;6.780;2023-08-06T06:57:13;18.80;99.90
9984;DHT22;16737;50.932;6.780;2023-08-06T06:59:40;18.80;99.90
9984;DHT22;16737;50.932;6.780;2023-08-06T07:02:07;18.80;99.90
9984;DHT22;16737;50.932;6.780;2023-08-06T07:04:36;18.80;99.90
9984;DHT22;16737;50.932;6.780;2023-08-06T07:07:03;18.80;99.90
9984;DHT22;16737;50.932;6.780;2023-08-06T07:09:33;18.80;99.90
9984;DHT22;16737;50.932;6.780;2023-08-06T07:12:00;18.70;99.90
9984;DHT22;16737;50.932;6.780;2023-08-06T07:14:28;18.80;99.90
9984;DHT22;16737;50.932;6.780;2023-08-06T07:16:55;18.70;99.90
9984;DHT22;16737;50.932;6.780;2023-08-06T07:19:23;18.70;99.90
9984;DHT22;16737;50.932;6.780;2023-08-06T07:21:52;18.70;99.90
9984;DHT22;16737;50.932;6.780;2023-08-06T07:24:18;18.70;99.90
9984;DHT22;16737;50.932;6.780;2023-08-06T07:26:45;18.70;99.90
9984;DHT22;16737;50.932;6.780;2023-08-06T07:29:13;18.70;99.90
9984;DHT22;16737;50.932;6.780;2023-08-06T07:31:45;18.70;99.90
9984;DHT22;16737;50.932;6.780;2023-08-06T07:34:12;18.70;99.90
9984;DHT22;16737;50.932;6.780;2023-08-06T07:36:39;18.70;99.90
9984;DHT22;16737;50.932;6.780;2023-08-06T07:39:07;18.70;99.90
9984;DHT22;16737;50.932;6.780;2023-08-06T07:41:35;18.70;99.90
9984;DHT22;16737;50.932;6.780;2023-08-06T07:44:02;18.80;99.90
9984;DHT22;16737;50.932;6.780;2023-08-06T07:46:29;18.80;99.90
9984;DHT22;16737;50.932;6.780;2023-08-06T07:48:56;18.80;99.90
9984;DHT22;16737;50.932;6.780;2023-08-06T07:51:23;18.80;99.90
9984;DHT22;16737;50.932;6.780;2023-08-06T07:53:51;18.90;99.90
9984;DHT22;16737;50.932;6.780;2023-08-06T07:56:21;18.90;99.90
9984;DHT22;16737;50.932;6.780;2023-08-06T07:58:48;18.90;99.90
9984;DHT22;16737;50.932;6.780;2023-08-06T08:01:15;19.00;99.90
9984;DHT22;16737;50.932;6.780;2023-08-06T08:03:42;19.00;99.90
9984;DHT22;16737;50.932;6.780;2023-08-06T08:06:09;19.10;99.90
9984;DHT22;16737;50.932;6.780;2023-08-06T08:08:35;19.10;99.90
9984;DHT22;16737;50.932;6.780;2023-08-06T08:11:05;19.10;99.90
9984;DHT22;16737;50.932;6.780;2023-08-06T08:13:33;19.20;99.90
9984;DHT22;16737;50.932;6.780;2023-08-06T08:16:01;19.20;99.90
9984;DHT22;16737;50.932;6.780;2023-08-06T08:18:28;19.20;99.90
9984;DHT22;16737;50.932;6.780;2023-08-06T08:20:57;19.20;99.90
9984;DHT22;16737;50.932;6.780;2023-08-06T08:23:24;19.20;99.90
9984;DHT22;16737;50.932;6.780;2023-08-06T08:25:51;19.20;99.90
9984;DHT22;16737;50.932;6.780;2023-08-06T08:28:18;19.20;99.90
9984;DHT22;16737;50.932;6.780;2023-08-06T08:30:46;19.20;99.90
9984;DHT22;16737;50.932;6.780;2023-08-06T08:33:13;19.20;99.90
9984;DHT22;16737;50.932;6.780;2023-08-06T08:35:40;19.20;99.90
9984;DHT22;16737;50.932;6.780;2023-08-06T08:38:07;19.30;99.90
9984;DHT22;16737;50.932;6.780;2023-08-06T08:40:39;19.30;99.90
9984;DHT22;16737;50.932;6.780;2023-08-06T08:43:12;19.30;99.90
9984;DHT22;16737;50.932;6.780;2023-08-06T08:45:42;19.30;99.90
9984;DHT22;16737;50.932;6.780;2023-08-06T08:48:12;19.40;99.90
9984;DHT22;16737;50.932;6.780;2023-08-06T08:50:42;19.40;99.90
9984;DHT22;16737;50.932;6.780;2023-08-06T08:53:10;19.40;99.90
9984;DHT22;16737;50.932;6.780;2023-08-06T08:55:39;19.40;99.90
9984;DHT22;16737;50.932;6.780;2023-08-06T08:58:07;19.40;99.90
9984;DHT22;16737;50.932;6.780;2023-08-06T09:00:34;19.40;99.90
9984;DHT22;16737;50.932;6.780;2023-08-06T09:03:04;19.40;99.90
9984;DHT22;16737;50.932;6.780;2023-08-06T09:05:34;19.40;99.90
9984;DHT22;16737;50.932;6.780;2023-08-06T09:08:03;19.50;99.90
9984;DHT22;16737;50.932;6.780;2023-08-06T09:10:31;19.50;99.90
9984;DHT22;16737;50.932;6.780;2023-08-06T09:12:58;19.50;99.90
9984;DHT22;16737;50.932;6.780;2023-08-06T09:15:27;19.50;99.90
9984;DHT22;16737;50.932;6.780;2023-08-06T09:17:55;19.50;99.90
9984;DHT22;16737;50.932;6.780;2023-08-06T09:20:22;19.50;99.90
9984;DHT22;16737;50.932;6.780;2023-08-06T09:22:52;19.50;99.90
9984;DHT22;16737;50.932;6.780;2023-08-06T09:25:22;19.50;99.90
9984;DHT22;16737;50.932;6.780;2023-08-06T09:27:52;19.50;99.90
9984;DHT22;16737;50.932;6.780;2023-08-06T09:30:29;19.50;99.90
9984;DHT22;16737;50.932;6.780;2023-08-06T09:32:58;19.50;99.90
9984;DHT22;16737;50.932;6.780;2023-08-06T09:35:27;19.50;99.90
9984;DHT22;16737;50.932;6.780;2023-08-06T09:38:08;19.40;99.90
9984;DHT22;16737;50.932;6.780;2023-08-06T09:40:38;19.40;99.90
9984;DHT22;16737;50.932;6.780;2023-08-06T09:43:06;19.40;99.90
9984;DHT22;16737;50.932;6.780;2023-08-06T09:45:34;19.40;99.90
9984;DHT22;16737;50.932;6.780;2023-08-06T09:48:04;19.40;99.90
9984;DHT22;16737;50.932;6.780;2023-08-06T09:50:33;19.30;99.90
9984;DHT22;16737;50.932;6.780;2023-08-06T09:53:04;19.30;99.90
9984;DHT22;16737;50.932;6.780;2023-08-06T09:55:32;19.20;99.90
9984;DHT22;16737;50.932;6.780;2023-08-06T09:58:00;19.20;99.90
9984;DHT22;16737;50.932;6.780;2023-08-06T10:00:28;19.10;99.90
9984;DHT22;16737;50.932;6.780;2023-08-06T10:03:00;19.00;99.90
9984;DHT22;16737;50.932;6.780;2023-08-06T10:05:27;18.90;99.90
9984;DHT22;16737;50.932;6.780;2023-08-06T10:07:57;18.90;99.90
9984;DHT22;16737;50.932;6.780;2023-08-06T10:10:30;18.80;99.90
9984;DHT22;16737;50.932;6.780;2023-08-06T10:12:59;18.70;99.90
9984;DHT22;16737;50.932;6.780;2023-08-06T10:15:30;18.60;99.90
9984;DHT22;16737;50.932;6.780;2023-08-06T10:17:59;18.50;99.90
9984;DHT22;16737;50.932;6.780;2023-08-06T10:20:33;18.50;99.90
9984;DHT22;16737;50.932;6.780;2023-08-06T10:23:06;18.40;99.90
9984;DHT22;16737;50.932;6.780;2023-08-06T10:25:34;18.30;99.90
9984;DHT22;16737;50.932;6.780;2023-08-06T10:28:10;18.30;99.90
9984;DHT22;16737;50.932;6.780;2023-08-06T10:30:42;18.20;99.90
9984;DHT22;16737;50.932;6.780;2023-08-06T10:33:19;18.10;99.90
9984;DHT22;16737;50.932;6.780;2023-08-06T10:35:47;18.10;99.90
9984;DHT22;16737;50.932;6.780;2023-08-06T10:38:18;18.00;99.90
9984;DHT22;16737;50.932;6.780;2023-08-06T10:40:49;17.90;99.90
9984;DHT22;16737;50.932;6.780;2023-08-06T10:43:27;17.90;99.90
9984;DHT22;16737;50.932;6.780;2023-08-06T10:45:56;17.80;99.90
9984;DHT22;16737;50.932;6.780;2023-08-06T10:48:31;17.80;99.90
9984;DHT22;16737;50.932;6.780;2023-08-06T10:51:02;17.70;99.90
9984;DHT22;16737;50.932;6.780;2023-08-06T10:53:37;17.60;99.90
9984;DHT22;16737;50.932;6.780;2023-08-06T10:56:12;17.60;99.90
9984;DHT22;16737;50.932;6.780;2023-08-06T10:58:39;17.60;99.90
9984;DHT22;16737;50.932;6.780;2023-08-06T11:01:06;17.50;99.90
9984;DHT22;16737;50.932;6.780;2023-08-06T11:03:33;17.50;99.90
9984;DHT22;16737;50.932;6.780;2023-08-06T11:06:00;17.50;99.90
9984;DHT22;16737;50.932;6.780;2023-08-06T11:08:32;17.40;99.90
9984;DHT22;16737;50.932;6.780;2023-08-06T11:11:08;17.40;99.90
9984;DHT22;16737;50.932;6.780;2023-08-06T11:13:36;17.30;99.90
9984;DHT22;16737;50.932;6.780;2023-08-06T11:16:04;17.30;99.90
9984;DHT22;16737;50.932;6.780;2023-08-06T11:18:32;17.30;99.90
9984;DHT22;16737;50.932;6.780;2023-08-06T11:20:59;17.30;99.90
9984;DHT22;16737;50.932;6.780;2023-08-06T11:23:27;17.30;99.90
9984;DHT22;16737;50.932;6.780;2023-08-06T11:25:57;17.30;99.90
9984;DHT22;16737;50.932;6.780;2023-08-06T11:28:31;17.30;99.90
9984;DHT22;16737;50.932;6.780;2023-08-06T11:30:58;17.30;99.90
9984;DHT22;16737;50.932;6.780;2023-08-06T11:33:28;17.30;99.90
9984;DHT22;16737;50.932;6.780;2023-08-06T11:35:56;17.30;99.90
9984;DHT22;16737;50.932;6.780;2023-08-06T11:38:25;17.30;99.90
9984;DHT22;16737;50.932;6.780;2023-08-06T11:40:53;17.30;99.90
9984;DHT22;16737;50.932;6.780;2023-08-06T11:43:22;17.30;99.90
9984;DHT22;16737;50.932;6.780;2023-08-06T11:45:49;17.30;99.90
9984;DHT22;16737;50.932;6.780;2023-08-06T11:48:23;17.30;99.90
9984;DHT22;16737;50.932;6.780;2023-08-06T11:50:54;17.40;99.90
9984;DHT22;16737;50.932;6.780;2023-08-06T11:53:27;17.40;99.90
9984;DHT22;16737;50.932;6.780;2023-08-06T11:55:55;17.40;99.90
9984;DHT22;16737;50.932;6.780;2023-08-06T11:58:24;17.40;99.90
9984;DHT22;16737;50.932;6.780;2023-08-06T12:00:50;17.50;99.90
9984;DHT22;16737;50.932;6.780;2023-08-06T12:03:19;17.50;99.90
9984;DHT22;16737;50.932;6.780;2023-08-06T12:05:53;17.50;99.90
9984;DHT22;16737;50.932;6.780;2023-08-06T12:08:20;17.50;99.90
9984;DHT22;16737;50.932;6.780;2023-08-06T12:10:52;17.60;99.90
9984;DHT22;16737;50.932;6.780;2023-08-06T12:13:19;17.60;99.90
9984;DHT22;16737;50.932;6.780;2023-08-06T12:15:48;17.60;99.90
9984;DHT22;16737;50.932;6.780;2023-08-06T12:18:15;17.70;99.90
9984;DHT22;16737;50.932;6.780;2023-08-06T12:20:42;17.70;99.90
9984;DHT22;16737;50.932;6.780;2023-08-06T12:23:09;17.70;99.90
9984;DHT22;16737;50.932;6.780;2023-08-06T12:25:40;17.80;99.90
9984;DHT22;16737;50.932;6.780;2023-08-06T12:28:07;17.80;99.90
9984;DHT22;16737;50.932;6.780;2023-08-06T12:30:35;17.80;99.90
9984;DHT22;16737;50.932;6.780;2023-08-06T12:33:03;17.90;99.90
9984;DHT22;16737;50.932;6.780;2023-08-06T12:35:33;17.90;99.90
9984;DHT22;16737;50.932;6.780;2023-08-06T12:38:00;17.90;99.90
9984;DHT22;16737;50.932;6.780;2023-08-06T12:40:28;17.90;99.90
9984;DHT22;16737;50.932;6.780;2023-08-06T12:42:54;17.90;99.90
9984;DHT22;16737;50.932;6.780;2023-08-06T12:45:22;18.00;99.90
9984;DHT22;16737;50.932;6.780;2023-08-06T12:47:49;18.00;99.90
9984;DHT22;16737;50.932;6.780;2023-08-06T12:50:17;18.00;99.90
9984;DHT22;16737;50.932;6.780;2023-08-06T12:52:44;18.00;99.90
9984;DHT22;16737;50.932;6.780;2023-08-06T12:55:11;18.00;99.90
9984;DHT22;16737;50.932;6.780;2023-08-06T12:57:38;18.00;99.90
9984;DHT22;16737;50.932;6.780;2023-08-06T13:00:06;18.00;99.90
9984;DHT22;16737;50.932;6.780;2023-08-06T13:02:34;18.00;99.90
9984;DHT22;16737;50.932;6.780;2023-08-06T13:05:01;18.00;99.90
9984;DHT22;16737;50.932;6.780;2023-08-06T13:07:32;18.00;99.90
9984;DHT22;16737;50.932;6.780;2023-08-06T13:09:59;18.00;99.90
9984;DHT22;16737;50.932;6.780;2023-08-06T13:12:26;18.00;99.90
9984;DHT22;16737;50.932;6.780;2023-08-06T13:14:53;18.00;99.90
9984;DHT22;16737;50.932;6.780;2023-08-06T13:17:23;18.00;99.90
9984;DHT22;16737;50.932;6.780;2023-08-06T13:19:50;18.00;99.90
9984;DHT22;16737;50.932;6.780;2023-08-06T13:22:17;18.00;99.90
9984;DHT22;16737;50.932;6.780;2023-08-06T13:24:45;18.10;99.90
9984;DHT22;16737;50.932;6.780;2023-08-06T13:27:12;18.10;99.90
9984;DHT22;16737;50.932;6.780;2023-08-06T13:29:39;18.10;99.90
9984;DHT22;16737;50.932;6.780;2023-08-06T13:32:06;18.10;99.90
9984;DHT22;16737;50.932;6.780;2023-08-06T13:34:33;18.10;99.90
9984;DHT22;16737;50.932;6.780;2023-08-06T13:37:00;18.10;99.90
9984;DHT22;16737;50.932;6.780;2023-08-06T13:39:30;18.10;99.90
9984;DHT22;16737;50.932;6.780;2023-08-06T13:41:58;18.10;99.90
9984;DHT22;16737;50.932;6.780;2023-08-06T13:44:25;18.10;99.90
9984;DHT22;16737;50.932;6.780;2023-08-06T13:46:52;18.10;99.90
9984;DHT22;16737;50.932;6.780;2023-08-06T13:49:19;18.10;99.90
9984;DHT22;16737;50.932;6.780;2023-08-06T13:51:46;18.10;99.90
9984;DHT22;16737;50.932;6.780;2023-08-06T13:54:13;18.20;99.90
9984;DHT22;16737;50.932;6.780;2023-08-06T13:56:40;18.20;99.90
9984;DHT22;16737;50.932;6.780;2023-08-06T13:59:09;18.20;99.90
9984;DHT22;16737;50.932;6.780;2023-08-06T14:01:38;18.20;99.90
9984;DHT22;16737;50.932;6.780;2023-08-06T14:04:06;18.30;99.90
9984;DHT22;16737;50.932;6.780;2023-08-06T14:06:32;18.30;99.90
9984;DHT22;16737;50.932;6.780;2023-08-06T14:08:59;18.30;99.90
9984;DHT22;16737;50.932;6.780;2023-08-06T14:11:26;18.30;99.90
9984;DHT22;16737;50.932;6.780;2023-08-06T14:13:52;18.30;99.90
9984;DHT22;16737;50.932;6.780;2023-08-06T14:16:21;18.30;99.90
9984;DHT22;16737;50.932;6.780;2023-08-06T14:18:48;18.30;99.90
9984;DHT22;16737;50.932;6.780;2023-08-06T14:21:15;18.30;99.90
9984;DHT22;16737;50.932;6.780;2023-08-06T14:23:42;18.30;99.90
9984;DHT22;16737;50.932;6.780;2023-08-06T14:26:08;18.30;99.90
9984;DHT22;16737;50.932;6.780;2023-08-06T14:28:36;18.30;99.90
9984;DHT22;16737;50.932;6.780;2023-08-06T14:31:03;18.30;99.90
9984;DHT22;16737;50.932;6.780;2023-08-06T14:33:31;18.30;99.90
9984;DHT22;16737;50.932;6.780;2023-08-06T14:35:59;18.30;99.90
9984;DHT22;16737;50.932;6.780;2023-08-06T14:38:27;18.30;99.90
9984;DHT22;16737;50.932;6.780;2023-08-06T14:40:54;18.30;99.90
9984;DHT22;16737;50.932;6.780;2023-08-06T14:43:21;18.40;99.90
9984;DHT22;16737;50.932;6.780;2023-08-06T14:45:48;18.30;99.90
9984;DHT22;16737;50.932;6.780;2023-08-06T14:48:14;18.40;99.90
9984;DHT22;16737;50.932;6.780;2023-08-06T14:50:43;18.40;99.90
9984;DHT22;16737;50.932;6.780;2023-08-06T14:53:10;18.40;99.90
9984;DHT22;16737;50.932;6.780;2023-08-06T14:55:37;18.50;99.90
9984;DHT22;16737;50.932;6.780;2023-08-06T14:58:04;18.50;99.90
9984;DHT22;16737;50.932;6.780;2023-08-06T15:00:31;18.50;99.90
9984;DHT22;16737;50.932;6.780;2023-08-06T15:02:58;18.60;99.90
9984;DHT22;16737;50.932;6.780;2023-08-06T15:05:24;18.60;99.90
9984;DHT22;16737;50.932;6.780;2023-08-06T15:07:53;18.70;99.90
9984;DHT22;16737;50.932;6.780;2023-08-06T15:10:20;18.70;99.90
9984;DHT22;16737;50.932;6.780;2023-08-06T15:12:47;18.70;99.90
9984;DHT22;16737;50.932;6.780;2023-08-06T15:15:15;18.70;99.90
9984;DHT22;16737;50.932;6.780;2023-08-06T15:17:42;18.70;99.90
9984;DHT22;16737;50.932;6.780;2023-08-06T15:20:10;18.80;99.90
9984;DHT22;16737;50.932;6.780;2023-08-06T15:22:37;18.80;99.90
9984;DHT22;16737;50.932;6.780;2023-08-06T15:25:06;18.90;99.90
9984;DHT22;16737;50.932;6.780;2023-08-06T15:27:33;18.90;99.90
9984;DHT22;16737;50.932;6.780;2023-08-06T15:30:00;18.90;99.90
9984;DHT22;16737;50.932;6.780;2023-08-06T15:32:28;18.90;99.90
9984;DHT22;16737;50.932;6.780;2023-08-06T15:34:55;19.00;99.90
9984;DHT22;16737;50.932;6.780;2023-08-06T15:37:22;18.90;99.90
9984;DHT22;16737;50.932;6.780;2023-08-06T15:39:53;18.90;99.90
9984;DHT22;16737;50.932;6.780;2023-08-06T15:42:21;19.00;99.90
9984;DHT22;16737;50.932;6.780;2023-08-06T15:44:48;19.00;99.90
9984;DHT22;16737;50.932;6.780;2023-08-06T15:47:15;19.00;99.90
9984;DHT22;16737;50.932;6.780;2023-08-06T15:49:42;19.00;99.90
9984;DHT22;16737;50.932;6.780;2023-08-06T15:52:09;19.00;99.90